Time;durP1;ratioP1;P1;durP2;ratioP2;P2;SDS_P1;SDS_P2;PMS_P1;PMS_P2;Temp;Humidity;BMP_temperature;BMP_pressure;BME280_temperature;BME280_humidity;BME280_pressure;Samples;Min_cycle;Max_cycle;Signal;HPM_P1;HPM_P2
2022/03/24 00:01:40;;;;;;;14.80;8.18;;;3.20;99.90;;;;;;5096084;28;20421;-61
2022/03/24 00:04:07;;;;;;;14.60;7.28;;;3.20;99.90;;;;;;5094361;28;20020;-62
2022/03/24 00:06:33;;;;;;;16.55;7.57;;;3.10;99.90;;;;;;5095529;28;20032;-61
2022/03/24 00:08:59;;;;;;;15.60;7.82;;;3.10;99.90;;;;;;5094642;28;20024;-61
2022/03/24 00:11:24;;;;;;;14.27;8.23;;;3.10;99.90;;;;;;5095526;28;20483;-62
2022/03/24 00:13:50;;;;;;;14.10;7.65;;;3.10;99.90;;;;;;5095281;28;20047;-61
2022/03/24 00:16:18;;;;;;;21.42;7.97;;;3.00;99.90;;;;;;5095356;28;20452;-62
2022/03/24 00:18:44;;;;;;;16.58;8.00;;;3.00;99.90;;;;;;5095396;28;20020;-62
2022/03/24 00:21:10;;;;;;;13.95;7.63;;;3.00;99.90;;;;;;5094302;28;20031;-62
2022/03/24 00:23:36;;;;;;;12.75;7.30;;;2.90;99.90;;;;;;5095275;28;20036;-62
2022/03/24 00:26:02;;;;;;;13.85;8.10;;;2.90;99.90;;;;;;5095264;28;20020;-61
2022/03/24 00:28:27;;;;;;;13.27;7.00;;;2.90;99.90;;;;;;5095005;28;20460;-62
2022/03/24 00:30:53;;;;;;;19.75;8.40;;;3.00;99.90;;;;;;5095130;28;20027;-62
2022/03/24 00:33:19;;;;;;;11.98;7.20;;;2.80;99.90;;;;;;5095286;28;20032;-61
2022/03/24 00:35:45;;;;;;;15.10;7.20;;;2.80;99.90;;;;;;5093365;28;20035;-62
2022/03/24 00:38:10;;;;;;;18.83;7.68;;;2.80;99.90;;;;;;5094818;28;20021;-62
2022/03/24 00:40:36;;;;;;;12.50;7.15;;;2.70;99.90;;;;;;5095469;28;20024;-62
2022/03/24 00:43:01;;;;;;;14.30;7.47;;;2.70;99.90;;;;;;5093672;28;20394;-62
2022/03/24 00:45:29;;;;;;;13.27;7.38;;;2.70;99.90;;;;;;5094860;28;20035;-62
2022/03/24 00:47:55;;;;;;;13.95;7.53;;;2.70;99.90;;;;;;5094045;28;20123;-62
2022/03/24 00:50:20;;;;;;;25.02;7.78;;;2.60;99.90;;;;;;5094002;28;20527;-62
2022/03/24 00:52:46;;;;;;;16.60;7.55;;;2.60;99.90;;;;;;5094391;28;20403;-62
2022/03/24 00:55:13;;;;;;;15.20;6.80;;;2.50;99.90;;;;;;5093444;28;20031;-61
2022/03/24 00:57:43;;;;;;;14.77;6.65;;;2.60;99.90;;;;;;5093367;28;20031;-61
2022/03/24 01:00:12;;;;;;;12.52;6.93;;;3.50;99.90;;;;;;5093450;28;20024;-61
2022/03/24 01:02:37;;;;;;;13.73;6.80;;;2.40;99.90;;;;;;5093301;28;20035;-62
2022/03/24 01:05:07;;;;;;;16.05;7.40;;;2.40;99.90;;;;;;5094799;28;20099;-61
2022/03/24 01:07:34;;;;;;;15.27;7.13;;;2.40;99.90;;;;;;5093158;28;20123;-61
2022/03/24 01:09:59;;;;;;;13.88;6.35;;;2.40;99.90;;;;;;5094119;28;20414;-61
2022/03/24 01:12:25;;;;;;;15.85;7.45;;;2.40;99.90;;;;;;5094347;28;20127;-61
2022/03/24 01:14:52;;;;;;;16.15;7.25;;;2.30;99.90;;;;;;5094429;28;20051;-61
2022/03/24 01:17:18;;;;;;;16.70;7.35;;;2.30;99.90;;;;;;5094482;28;20361;-69
2022/03/24 01:19:44;;;;;;;14.25;6.80;;;2.30;99.90;;;;;;5094371;28;20026;-62
2022/03/24 01:22:10;;;;;;;11.27;6.50;;;2.30;99.90;;;;;;5094910;28;20024;-63
2022/03/24 01:24:38;;;;;;;15.18;6.70;;;2.30;99.90;;;;;;5094062;28;20024;-64
2022/03/24 01:27:05;;;;;;;12.70;6.90;;;2.40;99.90;;;;;;5093896;28;20375;-63
2022/03/24 01:29:31;;;;;;;13.88;6.60;;;2.30;99.90;;;;;;5094423;28;20032;-68
2022/03/24 01:31:57;;;;;;;14.60;6.95;;;2.20;99.90;;;;;;5094044;28;20032;-62
2022/03/24 01:34:24;;;;;;;12.88;6.53;;;2.20;99.90;;;;;;5093037;28;20031;-61
2022/03/24 01:36:50;;;;;;;11.00;6.28;;;2.80;99.90;;;;;;5092773;28;20109;-62
2022/03/24 01:39:16;;;;;;;13.98;7.20;;;2.10;99.90;;;;;;5094016;28;20040;-61
2022/03/24 01:41:44;;;;;;;13.70;6.57;;;2.10;99.90;;;;;;5092952;28;20051;-62
2022/03/24 01:44:14;;;;;;;13.60;6.47;;;2.10;99.90;;;;;;5093590;28;20597;-61
2022/03/24 01:47:06;;;;;;;14.40;7.13;;;2.40;99.90;;;;;;5091900;28;20424;-62
2022/03/24 01:49:35;;;;;;;12.00;6.72;;;2.00;99.90;;;;;;5094245;28;20028;-62
2022/03/24 01:52:01;;;;;;;14.80;6.47;;;2.00;99.90;;;;;;5094442;28;20036;-62
2022/03/24 01:54:31;;;;;;;14.98;7.15;;;2.00;99.90;;;;;;5094012;28;20032;-62
2022/03/24 01:56:59;;;;;;;13.23;7.07;;;2.00;99.90;;;;;;5094325;28;20031;-62
2022/03/24 01:59:25;;;;;;;11.35;5.55;;;2.30;99.90;;;;;;5093700;28;20383;-62
2022/03/24 02:01:51;;;;;;;17.63;6.65;;;3.20;99.90;;;;;;5094107;28;20098;-61
2022/03/24 02:04:18;;;;;;;13.23;6.50;;;1.90;99.90;;;;;;5093514;28;20039;-62
2022/03/24 02:06:43;;;;;;;10.20;6.05;;;1.90;99.90;;;;;;5094266;28;20028;-62
2022/03/24 02:09:11;;;;;;;13.45;5.68;;;1.90;99.90;;;;;;5092596;28;20073;-62
2022/03/24 02:11:37;;;;;;;12.55;6.38;;;1.90;99.90;;;;;;5093361;28;20039;-61
2022/03/24 02:14:04;;;;;;;11.88;5.85;;;1.90;99.90;;;;;;5093864;28;20123;-61
2022/03/24 02:16:38;;;;;;;10.98;6.10;;;1.80;99.90;;;;;;5093800;28;20028;-61
2022/03/24 02:19:21;;;;;;;9.65;5.32;;;1.80;99.90;;;;;;5092166;28;20118;-62
2022/03/24 02:21:49;;;;;;;14.20;5.82;;;2.90;99.90;;;;;;5093868;28;20020;-61
2022/03/24 02:24:16;;;;;;;11.48;5.95;;;2.90;99.90;;;;;;5092347;28;20408;-62
2022/03/24 02:26:44;;;;;;;16.08;5.90;;;1.80;99.90;;;;;;5093268;28;20067;-62
2022/03/24 02:29:15;;;;;;;12.73;6.28;;;1.70;99.90;;;;;;5092695;28;20085;-61
2022/03/24 02:31:45;;;;;;;11.75;5.65;;;1.70;99.90;;;;;;5093613;28;20024;-61
2022/03/24 02:37:01;;;;;;;10.52;6.03;;;1.70;99.90;;;;;;5093518;28;20028;-61
2022/03/24 02:39:27;;;;;;;11.50;5.35;;;1.60;99.90;;;;;;5092117;28;20391;-61
2022/03/24 02:41:55;;;;;;;13.23;5.68;;;1.60;99.90;;;;;;5093166;28;20066;-61
2022/03/24 02:44:22;;;;;;;13.18;6.20;;;1.60;99.90;;;;;;5092183;28;20135;-61
2022/03/24 02:46:50;;;;;;;13.40;6.10;;;1.60;99.90;;;;;;5093435;28;20470;-61
2022/03/24 02:49:25;;;;;;;11.98;5.90;;;1.50;99.90;;;;;;5093371;28;20032;-62
2022/03/24 02:51:55;;;;;;;10.80;5.47;;;1.50;99.90;;;;;;5093338;28;20032;-62
2022/03/24 02:54:22;;;;;;;10.75;5.50;;;1.50;99.90;;;;;;5092338;28;20457;-61
2022/03/24 02:56:48;;;;;;;9.35;5.38;;;1.50;99.90;;;;;;5092030;28;20450;-61
2022/03/24 02:59:15;;;;;;;13.18;5.82;;;1.40;99.90;;;;;;5096490;28;20024;-61
2022/03/24 03:01:50;;;;;;;10.63;5.30;;;1.40;99.90;;;;;;5095692;28;20445;-61
2022/03/24 03:04:16;;;;;;;14.18;5.65;;;2.00;99.90;;;;;;5097171;28;20032;-61
2022/03/24 03:06:42;;;;;;;11.57;5.78;;;1.40;99.90;;;;;;5096801;28;20479;-61
2022/03/24 03:09:07;;;;;;;10.73;5.85;;;1.90;99.90;;;;;;5095515;28;20021;-61
2022/03/24 03:11:33;;;;;;;16.85;6.40;;;1.40;99.90;;;;;;5095616;28;20032;-61
2022/03/24 03:14:00;;;;;;;11.15;5.20;;;1.30;99.90;;;;;;5095144;28;20073;-61
2022/03/24 03:16:27;;;;;;;10.57;5.88;;;1.30;99.90;;;;;;5096602;28;20064;-61
2022/03/24 03:18:53;;;;;;;10.90;6.00;;;1.90;99.90;;;;;;5096556;28;20036;-61
2022/03/24 03:21:19;;;;;;;10.32;6.22;;;1.30;99.90;;;;;;5096669;28;20020;-61
2022/03/24 03:23:45;;;;;;;12.10;5.78;;;1.30;99.90;;;;;;5096441;28;20036;-61
2022/03/24 03:26:12;;;;;;;15.07;5.95;;;1.60;99.90;;;;;;5096422;28;20082;-61
2022/03/24 03:28:39;;;;;;;14.75;6.22;;;1.80;99.90;;;;;;5095089;28;20430;-61
2022/03/24 03:31:05;;;;;;;10.98;5.72;;;1.20;99.90;;;;;;5096639;28;20027;-61
2022/03/24 03:33:34;;;;;;;12.73;5.63;;;1.30;99.90;;;;;;5095332;28;20028;-61
2022/03/24 03:36:00;;;;;;;10.82;5.55;;;1.20;99.90;;;;;;5096220;28;20102;-61
2022/03/24 03:38:26;;;;;;;11.73;5.60;;;1.20;99.90;;;;;;5096182;28;20102;-61
2022/03/24 03:40:53;;;;;;;11.55;6.13;;;1.90;99.90;;;;;;5094906;28;20118;-61
2022/03/24 03:43:21;;;;;;;13.63;5.47;;;1.10;99.90;;;;;;5096169;28;20110;-61
2022/03/24 03:45:47;;;;;;;10.63;5.50;;;1.20;99.90;;;;;;5096096;28;20039;-62
2022/03/24 03:48:13;;;;;;;16.52;6.13;;;1.80;99.90;;;;;;5094749;28;20028;-62
2022/03/24 03:50:42;;;;;;;17.33;5.82;;;1.10;99.90;;;;;;5095458;28;20020;-61
2022/03/24 03:53:10;;;;;;;8.73;5.13;;;1.30;99.90;;;;;;5095876;28;20094;-62
2022/03/24 03:55:37;;;;;;;10.27;5.20;;;1.10;99.90;;;;;;5096085;28;20035;-62
2022/03/24 03:58:05;;;;;;;9.90;5.40;;;1.10;99.90;;;;;;5095546;28;20036;-61
2022/03/24 04:03:16;;;;;;;9.25;5.20;;;1.10;99.90;;;;;;5095742;28;20489;-61
2022/03/24 04:05:43;;;;;;;9.90;5.63;;;3.20;99.90;;;;;;5095643;28;20060;-62
2022/03/24 04:08:10;;;;;;;9.13;5.15;;;1.10;99.90;;;;;;5095854;28;20031;-62
2022/03/24 04:10:38;;;;;;;10.95;5.43;;;2.40;99.90;;;;;;5094821;28;20036;-61
2022/03/24 04:13:04;;;;;;;8.48;5.38;;;1.10;99.90;;;;;;5095558;28;20052;-62
2022/03/24 04:15:31;;;;;;;11.32;5.80;;;1.10;99.90;;;;;;5095797;28;20021;-61
2022/03/24 04:17:57;;;;;;;13.45;6.15;;;1.10;99.90;;;;;;5095419;28;20028;-62
2022/03/24 04:20:23;;;;;;;11.95;5.47;;;2.70;99.90;;;;;;5094233;28;20380;-61
2022/03/24 04:22:52;;;;;;;10.88;5.43;;;1.20;99.90;;;;;;5095932;28;20028;-62
2022/03/24 04:25:22;;;;;;;12.50;5.40;;;1.20;99.90;;;;;;5095236;28;20537;-62
2022/03/24 04:27:49;;;;;;;13.30;5.25;;;1.20;99.90;;;;;;5095146;28;20028;-61
2022/03/24 04:30:16;;;;;;;12.60;5.30;;;2.40;99.90;;;;;;5095727;28;20023;-62
2022/03/24 04:32:43;;;;;;;10.57;5.18;;;1.80;99.90;;;;;;5094088;28;20028;-62
2022/03/24 04:35:09;;;;;;;7.00;4.22;;;2.00;99.90;;;;;;5095113;28;20031;-62
2022/03/24 04:37:35;;;;;;;12.68;4.63;;;1.20;99.90;;;;;;5095312;28;20028;-61
2022/03/24 04:40:03;;;;;;;10.25;4.85;;;1.20;99.90;;;;;;5093789;28;20024;-62
2022/03/24 04:42:29;;;;;;;14.30;5.00;;;1.20;99.90;;;;;;5093696;28;20383;-62
2022/03/24 04:44:55;;;;;;;10.23;5.32;;;1.30;99.90;;;;;;5094958;28;20024;-62
2022/03/24 04:47:21;;;;;;;10.02;5.20;;;3.10;99.90;;;;;;5093569;28;20035;-61
2022/03/24 04:49:47;;;;;;;8.55;5.65;;;1.20;99.90;;;;;;5095033;28;20032;-62
2022/03/24 04:52:12;;;;;;;13.75;5.25;;;1.30;99.90;;;;;;5094706;28;20063;-62
2022/03/24 04:54:38;;;;;;;15.60;5.00;;;1.20;99.90;;;;;;5093416;28;20539;-62
2022/03/24 04:57:05;;;;;;;15.80;5.75;;;1.30;99.90;;;;;;5093672;28;20026;-62
2022/03/24 04:59:31;;;;;;;13.02;5.35;;;1.30;99.90;;;;;;5093047;28;20047;-62
2022/03/24 05:01:56;;;;;;;18.05;5.43;;;1.20;99.90;;;;;;5094572;28;20028;-67
2022/03/24 05:04:23;;;;;;;10.77;4.90;;;3.40;99.90;;;;;;5093649;28;20070;-61
2022/03/24 05:06:53;;;;;;;9.75;5.60;;;1.30;99.90;;;;;;5093207;28;20024;-61
2022/03/24 05:09:18;;;;;;;13.68;5.55;;;1.40;99.90;;;;;;5093195;28;20470;-62
2022/03/24 05:11:44;;;;;;;8.45;4.93;;;2.90;99.90;;;;;;5094707;28;20024;-61
2022/03/24 05:14:10;;;;;;;12.80;8.75;;;1.40;99.90;;;;;;5092677;28;20048;-62
2022/03/24 05:16:36;;;;;;;8.23;4.93;;;3.20;99.90;;;;;;5094302;28;20024;-62
2022/03/24 05:19:03;;;;;;;10.95;4.82;;;1.50;99.90;;;;;;5094598;28;20054;-62
2022/03/24 05:21:29;;;;;;;15.15;5.13;;;1.60;99.90;;;;;;5092907;28;20479;-62
2022/03/24 05:23:54;;;;;;;8.27;3.78;;;1.60;99.90;;;;;;5094018;28;20073;-61
2022/03/24 05:26:24;;;;;;;9.82;4.50;;;1.90;99.90;;;;;;5092997;28;20035;-61
2022/03/24 05:28:51;;;;;;;7.85;4.13;;;1.90;99.90;;;;;;5092850;28;20365;-61
2022/03/24 05:31:17;;;;;;;6.97;4.15;;;2.00;99.90;;;;;;5092779;28;20028;-62
2022/03/24 05:33:43;;;;;;;10.95;4.57;;;2.30;99.90;;;;;;5094125;28;20020;-61
2022/03/24 05:39:50;;;;;;;10.77;4.25;;;2.30;99.90;;;;;;5094094;28;20375;-62
2022/03/24 05:42:16;;;;;;;12.13;4.72;;;2.50;99.90;;;;;;5093724;28;20105;-62
2022/03/24 05:44:42;;;;;;;13.07;4.28;;;2.80;99.90;;;;;;5094014;28;20081;-62
2022/03/24 05:47:08;;;;;;;9.95;5.10;;;2.90;99.90;;;;;;5093960;28;20028;-61
2022/03/24 05:49:35;;;;;;;9.00;4.40;;;2.90;99.90;;;;;;5093974;28;20046;-62
2022/03/24 05:52:01;;;;;;;8.52;4.32;;;3.10;99.90;;;;;;5093330;28;20067;-63
2022/03/24 05:54:27;;;;;;;7.75;4.10;;;3.30;99.90;;;;;;5092581;28;20024;-62
2022/03/24 05:56:53;;;;;;;8.63;4.38;;;3.50;99.90;;;;;;5093933;28;20089;-62
2022/03/24 05:59:19;;;;;;;7.57;4.72;;;3.80;99.90;;;;;;5093891;28;20027;-62
2022/03/24 06:01:46;;;;;;;8.82;4.68;;;4.10;99.90;;;;;;5092576;28;20063;-62
2022/03/24 06:04:15;;;;;;;12.45;3.88;;;4.50;99.90;;;;;;5093880;28;20027;-62
2022/03/24 06:06:42;;;;;;;9.90;4.28;;;4.80;99.90;;;;;;5093775;28;20024;-62
2022/03/24 06:09:08;;;;;;;8.65;4.80;;;5.20;99.90;;;;;;5094009;28;20028;-62
2022/03/24 06:11:35;;;;;;;9.63;5.10;;;5.60;99.90;;;;;;5092714;28;20366;-62
2022/03/24 06:14:02;;;;;;;8.73;4.10;;;5.90;99.90;;;;;;5092171;28;20041;-62
2022/03/24 06:16:28;;;;;;;5.50;3.85;;;6.30;99.90;;;;;;5092441;28;20379;-62
2022/03/24 06:18:54;;;;;;;7.85;4.97;;;6.60;99.30;;;;;;5092380;28;20024;-63
2022/03/24 06:21:19;;;;;;;11.35;4.50;;;7.00;98.70;;;;;;5093731;28;20020;-62
2022/03/24 06:23:45;;;;;;;11.07;4.90;;;7.40;98.00;;;;;;5093671;28;20024;-63
2022/03/24 06:26:11;;;;;;;8.68;4.43;;;7.90;97.10;;;;;;5093877;28;20023;-63
2022/03/24 06:28:36;;;;;;;7.85;4.22;;;8.30;95.50;;;;;;5093247;28;20406;-62
2022/03/24 06:31:02;;;;;;;10.82;4.60;;;8.80;93.90;;;;;;5093667;28;20070;-62
2022/03/24 06:33:28;;;;;;;10.27;4.15;;;9.20;92.00;;;;;;5095483;28;20032;-62
2022/03/24 06:36:12;;;;;;;12.27;4.10;;;9.50;90.00;;;;;;5097740;28;20024;-63
2022/03/24 06:38:38;;;;;;;8.15;3.85;;;9.90;85.40;;;;;;5097657;28;20028;-63
2022/03/24 06:41:05;;;;;;;10.27;4.00;;;10.40;81.20;;;;;;5097369;28;20073;-63
2022/03/24 06:43:31;;;;;;;5.22;3.50;;;11.00;74.10;;;;;;5097065;28;20020;-63
2022/03/24 06:45:57;;;;;;;5.18;2.80;;;11.60;65.50;;;;;;5097070;28;20099;-63
2022/03/24 06:48:23;;;;;;;3.25;2.58;;;12.00;60.20;;;;;;5097011;28;20055;-63
2022/03/24 06:50:49;;;;;;;3.78;2.60;;;12.30;57.00;;;;;;5097104;28;20028;-63
2022/03/24 06:53:15;;;;;;;4.28;2.80;;;12.60;53.10;;;;;;5096565;28;20063;-63
2022/03/24 06:55:41;;;;;;;4.72;2.40;;;12.80;50.80;;;;;;5096753;28;20035;-62
2022/03/24 06:58:07;;;;;;;3.40;2.28;;;12.90;49.90;;;;;;5097081;28;20024;-63
2022/03/24 07:00:32;;;;;;;6.68;2.38;;;13.10;49.30;;;;;;5096915;28;20028;-63
2022/03/24 07:02:58;;;;;;;7.28;2.53;;;13.10;48.70;;;;;;5097147;28;20023;-63
2022/03/24 07:05:24;;;;;;;10.18;2.47;;;13.40;48.10;;;;;;5097042;28;20028;-62
2022/03/24 07:07:50;;;;;;;8.13;2.65;;;13.40;47.00;;;;;;5096810;28;20446;-62
2022/03/24 07:10:17;;;;;;;4.47;3.13;;;13.50;47.40;;;;;;5096507;28;20075;-62
2022/03/24 07:12:43;;;;;;;5.35;2.70;;;13.70;46.40;;;;;;5096467;28;20063;-63
2022/03/24 07:15:11;;;;;;;3.47;2.20;;;13.80;45.80;;;;;;5096815;28;20059;-62
2022/03/24 07:17:37;;;;;;;5.10;2.57;;;14.00;45.10;;;;;;5096660;28;20053;-62
2022/03/24 07:20:04;;;;;;;3.95;2.75;;;14.30;44.90;;;;;;5096634;28;20270;-62
2022/03/24 07:22:35;;;;;;;13.02;2.45;;;14.40;43.40;;;;;;5096540;28;20053;-62
2022/03/24 07:25:01;;;;;;;6.13;2.75;;;14.40;43.30;;;;;;5096498;28;20024;-62
2022/03/24 07:27:26;;;;;;;4.63;2.83;;;14.50;42.80;;;;;;5096150;28;20490;-62
2022/03/24 07:29:52;;;;;;;6.78;2.90;;;14.70;43.00;;;;;;5096156;28;20107;-62
2022/03/24 07:32:19;;;;;;;7.78;3.00;;;15.20;42.50;;;;;;5096279;28;20101;-62
2022/03/24 07:34:45;;;;;;;6.20;2.92;;;15.30;41.60;;;;;;5096272;28;20043;-62
2022/03/24 07:37:11;;;;;;;6.35;2.30;;;15.50;41.10;;;;;;5096172;28;20028;-63
2022/03/24 07:39:37;;;;;;;6.03;2.83;;;15.60;40.50;;;;;;5096433;28;20384;-62
2022/03/24 07:42:03;;;;;;;5.85;3.05;;;15.90;40.50;;;;;;5094458;28;20384;-63
2022/03/24 07:44:28;;;;;;;4.88;3.35;;;16.00;39.80;;;;;;5094805;28;20028;-63
2022/03/24 07:46:54;;;;;;;6.38;3.38;;;16.00;39.40;;;;;;5094632;28;20049;-63
2022/03/24 07:49:19;;;;;;;10.25;3.30;;;16.10;39.20;;;;;;5096088;28;20043;-63
2022/03/24 07:51:45;;;;;;;3.75;2.95;;;16.10;38.30;;;;;;5095428;28;20071;-63
2022/03/24 07:54:11;;;;;;;4.65;3.42;;;16.20;38.40;;;;;;5094091;28;20032;-62
2022/03/24 07:56:37;;;;;;;5.25;3.53;;;16.40;38.30;;;;;;5094485;28;20379;-63
2022/03/24 07:59:07;;;;;;;5.88;3.78;;;16.60;37.30;;;;;;5095727;28;20514;-63
2022/03/24 08:01:36;;;;;;;9.45;3.35;;;16.80;36.90;;;;;;5095695;28;20028;-63
2022/03/24 08:04:02;;;;;;;;;;;17.00;36.50;;;;;;5096430;28;20107;-62
2022/03/24 08:06:30;;;;;;;5.90;3.67;;;17.10;36.00;;;;;;5094300;28;19957;-63
2022/03/24 08:08:56;;;;;;;6.38;4.78;;;17.30;35.70;;;;;;5094350;28;20035;-62
2022/03/24 08:11:22;;;;;;;5.53;3.95;;;17.40;35.00;;;;;;5095296;28;20453;-63
2022/03/24 08:13:53;;;;;;;5.97;3.83;;;17.50;34.80;;;;;;5093831;28;20105;-63
2022/03/24 08:16:21;;;;;;;9.35;4.32;;;17.60;35.30;;;;;;5094615;28;20024;-63
2022/03/24 08:18:46;;;;;;;6.57;4.50;;;17.80;34.50;;;;;;5095354;28;20039;-63
2022/03/24 08:21:12;;;;;;;5.38;4.40;;;17.90;34.30;;;;;;5094896;28;20077;-63
2022/03/24 08:23:38;;;;;;;11.02;4.88;;;18.00;34.00;;;;;;5099589;28;20107;-63
2022/03/24 08:26:04;;;;;;;6.90;4.88;;;18.10;34.00;;;;;;5098675;28;20485;-63
2022/03/24 08:28:29;;;;;;;16.77;5.47;;;18.20;33.80;;;;;;5097195;28;20024;-63
2022/03/24 08:30:55;;;;;;;8.88;5.15;;;18.10;33.20;;;;;;5095867;28;20030;-63
2022/03/24 08:33:20;;;;;;;9.38;5.47;;;18.30;33.10;;;;;;5093655;28;20032;-63
2022/03/24 08:35:46;;;;;;;10.07;5.47;;;18.80;33.40;;;;;;5094766;28;20055;-63
2022/03/24 08:38:12;;;;;;;7.32;5.82;;;18.80;32.90;;;;;;5095111;28;20022;-62
2022/03/24 08:40:38;;;;;;;12.82;5.60;;;18.70;32.00;;;;;;5094876;28;20028;-63
2022/03/24 08:43:05;;;;;;;8.75;5.78;;;18.70;32.40;;;;;;5093694;28;20038;-63
2022/03/24 08:45:31;;;;;;;9.50;5.82;;;18.90;33.00;;;;;;5094813;28;20024;-63
2022/03/24 08:47:57;;;;;;;9.93;7.20;;;18.80;32.20;;;;;;5094835;28;20048;-63
2022/03/24 08:50:23;;;;;;;9.57;6.57;;;19.00;32.00;;;;;;5093843;28;20380;-63
2022/03/24 08:52:49;;;;;;;11.40;6.47;;;19.20;31.70;;;;;;5094760;28;20032;-63
2022/03/24 08:55:15;;;;;;;10.50;6.47;;;19.30;31.60;;;;;;5094298;28;20028;-63
2022/03/24 08:57:42;;;;;;;8.02;5.70;;;19.30;32.20;;;;;;5094633;28;20169;-63
2022/03/24 09:00:12;;;;;;;12.02;6.43;;;19.50;31.40;;;;;;5093296;28;20035;-63
2022/03/24 09:02:40;;;;;;;9.27;6.10;;;19.40;31.00;;;;;;5093268;28;20486;-63
2022/03/24 09:05:06;;;;;;;10.48;6.32;;;19.70;31.50;;;;;;5093307;28;20024;-63
2022/03/24 09:07:31;;;;;;;15.13;7.10;;;19.90;30.60;;;;;;5094435;28;20582;-63
2022/03/24 09:09:57;;;;;;;9.77;6.05;;;20.00;30.70;;;;;;5094092;28;20024;-63
2022/03/24 09:12:24;;;;;;;10.23;6.95;;;20.10;30.60;;;;;;5094154;28;20040;-63
2022/03/24 09:14:50;;;;;;;11.38;7.28;;;20.30;30.80;;;;;;5092629;28;20052;-63
2022/03/24 09:17:16;;;;;;;10.02;7.07;;;20.50;30.80;;;;;;5092966;28;20034;-63
2022/03/24 09:19:41;;;;;;;12.15;6.65;;;21.00;29.80;;;;;;5094142;28;20054;-63
2022/03/24 09:22:07;;;;;;;8.30;6.85;;;20.90;29.90;;;;;;5094152;28;20051;-63
2022/03/24 09:24:33;;;;;;;7.93;6.45;;;20.50;30.00;;;;;;5092937;28;20024;-63
2022/03/24 09:27:00;;;;;;;8.13;6.45;;;20.40;30.30;;;;;;5092936;28;20375;-63
2022/03/24 09:29:25;;;;;;;9.45;6.53;;;20.90;30.20;;;;;;5092843;28;20055;-63
2022/03/24 09:31:51;;;;;;;10.05;7.32;;;21.20;29.80;;;;;;5094305;28;20071;-63
2022/03/24 09:34:18;;;;;;;9.95;7.50;;;21.00;29.60;;;;;;5092678;28;20063;-64
2022/03/24 09:36:44;;;;;;;12.73;7.10;;;21.30;29.80;;;;;;5093993;28;20028;-63
2022/03/24 09:39:11;;;;;;;14.13;7.30;;;21.90;29.70;;;;;;5093957;28;20028;-63
2022/03/24 09:41:37;;;;;;;12.90;7.82;;;22.10;29.00;;;;;;5093950;28;20092;-63
2022/03/24 09:44:04;;;;;;;8.65;7.03;;;21.70;29.10;;;;;;5094046;28;20031;-63
2022/03/24 09:46:31;;;;;;;12.85;6.57;;;21.50;28.90;;;;;;5093958;28;20063;-63
2022/03/24 09:48:58;;;;;;;9.23;7.15;;;21.80;29.20;;;;;;5092604;28;20055;-63
2022/03/24 09:51:28;;;;;;;9.13;7.10;;;22.10;28.70;;;;;;5092466;28;20028;-63
2022/03/24 09:53:53;;;;;;;8.35;7.13;;;22.60;28.50;;;;;;5093840;28;20016;-63
2022/03/24 09:56:19;;;;;;;8.73;7.40;;;22.80;28.30;;;;;;5093724;28;20357;-63
2022/03/24 09:58:48;;;;;;;7.95;6.93;;;22.90;28.00;;;;;;5093945;28;20034;-63
2022/03/24 10:01:13;;;;;;;12.27;7.93;;;22.50;27.80;;;;;;5093712;28;20102;-63
2022/03/24 10:03:59;;;;;;;8.50;7.00;;;22.40;28.00;;;;;;5093631;28;20050;-63
2022/03/24 10:06:25;;;;;;;9.02;7.40;;;23.20;27.70;;;;;;5093481;28;20030;-63
2022/03/24 10:08:51;;;;;;;21.30;10.00;;;24.00;27.20;;;;;;5095290;28;20451;-61
2022/03/24 10:11:16;;;;;;;14.15;9.15;;;24.70;25.60;;;;;;5096537;28;20023;-61
2022/03/24 10:13:42;;;;;;;12.85;9.18;;;24.80;26.00;;;;;;5096240;28;20059;-63
2022/03/24 10:16:08;;;;;;;12.73;9.18;;;25.30;25.60;;;;;;5097690;28;20455;-63
2022/03/24 10:18:34;;;;;;;16.85;9.63;;;24.80;25.00;;;;;;5097537;28;20076;-63
2022/03/24 10:21:11;;;;;;;11.80;9.65;;;24.30;25.40;;;;;;5097642;28;20519;-63
2022/03/24 10:23:44;;;;;;;15.68;9.40;;;23.90;25.50;;;;;;5097808;28;20032;-63
2022/03/24 10:26:09;;;;;;;12.45;9.80;;;24.40;25.60;;;;;;5097959;28;20032;-63
2022/03/24 10:28:58;;;;;;;10.20;8.98;;;24.60;25.10;;;;;;5098004;28;20032;-64
2022/03/24 10:31:34;;;;;;;12.55;9.15;;;25.20;25.30;;;;;;5097510;28;20020;-63
2022/03/24 10:34:00;;;;;;;11.00;9.38;;;24.90;24.90;;;;;;5097495;28;20032;-64
2022/03/24 10:36:26;;;;;;;10.95;9.70;;;24.10;25.50;;;;;;5096015;28;20031;-64
2022/03/24 10:39:04;;;;;;;12.25;9.35;;;23.60;25.80;;;;;;5096073;28;20043;-63
2022/03/24 10:41:31;;;;;;;11.00;9.20;;;23.30;25.90;;;;;;5097321;28;20515;-64
2022/03/24 10:44:05;;;;;;;15.55;8.57;;;23.30;26.10;;;;;;5096894;28;20369;-64
2022/03/24 10:46:33;;;;;;;12.75;9.00;;;23.50;26.40;;;;;;5097422;28;20029;-67
2022/03/24 10:49:22;;;;;;;12.77;9.20;;;23.60;26.30;;;;;;5096413;28;20081;-68
2022/03/24 10:51:50;;;;;;;10.57;8.65;;;23.90;26.20;;;;;;5095653;28;20028;-68
2022/03/24 10:54:15;;;;;;;14.27;9.75;;;24.90;26.00;;;;;;5095715;28;20376;-66
2022/03/24 10:57:00;;;;;;;10.85;9.18;;;24.80;25.30;;;;;;5095729;28;20045;-67
2022/03/24 10:59:28;;;;;;;14.88;10.13;;;24.40;25.60;;;;;;5095896;28;20020;-67
2022/03/24 11:01:54;;;;;;;13.80;9.98;;;24.50;25.50;;;;;;5096045;28;20024;-67
2022/03/24 11:04:20;;;;;;;15.40;9.73;;;24.90;25.30;;;;;;5095651;28;20028;-67
2022/03/24 11:06:53;;;;;;;11.90;9.90;;;25.30;25.10;;;;;;5095565;28;20024;-67
2022/03/24 11:09:27;;;;;;;12.00;9.95;;;25.70;25.10;;;;;;5096972;28;20047;-66
2022/03/24 11:12:28;;;;;;;14.20;9.52;;;25.20;25.00;;;;;;5099106;28;20035;-66
2022/03/24 11:14:57;;;;;;;17.00;10.60;;;25.90;24.60;;;;;;5099597;28;20114;-66
2022/03/24 11:17:28;;;;;;;13.18;10.27;;;26.80;23.90;;;;;;5095589;28;20348;-65
2022/03/24 11:23:35;;;;;;;13.70;10.32;;;26.00;24.20;;;;;;5096471;28;20502;-65
2022/03/24 11:26:02;;;;;;;12.20;10.10;;;26.70;24.30;;;;;;5096282;28;20027;-63
2022/03/24 11:28:29;;;;;;;13.35;9.55;;;27.00;23.50;;;;;;5096612;28;20024;-67
2022/03/24 11:30:55;;;;;;;13.63;11.15;;;27.20;23.80;;;;;;5095180;28;20446;-64
2022/03/24 11:33:21;;;;;;;16.42;10.05;;;27.40;23.70;;;;;;5095186;28;20039;-64
2022/03/24 11:35:49;;;;;;;13.48;10.52;;;27.30;24.00;;;;;;5096264;28;20028;-67
2022/03/24 11:38:16;;;;;;;16.65;11.25;;;27.90;23.50;;;;;;5096045;28;20024;-64
2022/03/24 11:40:42;;;;;;;14.43;10.10;;;27.80;23.30;;;;;;5096230;28;20028;-67
2022/03/24 11:43:22;;;;;;;11.20;9.80;;;27.70;23.30;;;;;;5111789;28;20030;-67
2022/03/24 11:45:54;;;;;;;11.73;10.10;;;28.20;23.20;;;;;;5096139;28;20107;-67
2022/03/24 11:48:34;;;;;;;12.45;9.95;;;27.90;23.10;;;;;;5096283;28;20357;-67
2022/03/24 11:51:19;;;;;;;12.63;10.10;;;28.80;23.00;;;;;;5096097;28;20024;-67
2022/03/24 11:53:59;;;;;;;13.02;9.38;;;29.00;22.60;;;;;;5096141;28;20063;-67
2022/03/24 11:56:25;;;;;;;14.05;10.60;;;29.70;22.50;;;;;;5096141;28;20035;-67
2022/03/24 11:58:53;;;;;;;12.30;9.52;;;30.40;22.10;;;;;;5095866;28;20031;-67
2022/03/24 12:01:19;;;;;;;13.18;9.20;;;29.60;21.80;;;;;;5095978;28;20024;-68
2022/03/24 12:03:53;;;;;;;13.15;9.93;;;29.10;22.10;;;;;;5095692;28;20107;-67
2022/03/24 12:06:19;;;;;;;13.82;9.23;;;29.10;22.00;;;;;;5095534;28;20460;-67
2022/03/24 12:09:06;;;;;;;10.63;9.43;;;29.10;21.90;;;;;;5095760;28;20078;-67
2022/03/24 12:11:32;;;;;;;12.02;9.65;;;29.30;22.00;;;;;;5095034;28;20400;-67
2022/03/24 12:14:03;;;;;;;11.93;9.38;;;28.20;22.20;;;;;;5095061;28;20051;-67
2022/03/24 12:16:30;;;;;;;10.98;9.75;;;28.00;22.40;;;;;;5095847;28;20063;-67
2022/03/24 12:18:56;;;;;;;11.25;9.82;;;28.30;22.30;;;;;;5094126;28;20063;-67
2022/03/24 12:21:32;;;;;;;11.77;10.35;;;28.80;22.30;;;;;;5094155;28;20078;-65
2022/03/24 12:24:15;;;;;;;12.07;9.88;;;27.70;22.70;;;;;;5095448;28;20021;-64
2022/03/24 12:26:50;;;;;;;13.10;10.95;;;28.00;22.40;;;;;;5094402;28;20077;-64
2022/03/24 12:29:21;;;;;;;16.40;11.38;;;27.70;22.50;;;;;;5095152;28;20032;-65
2022/03/24 12:32:02;;;;;;;13.05;11.27;;;27.30;22.70;;;;;;5093099;28;20036;-65
2022/03/24 12:34:40;;;;;;;12.95;10.43;;;27.30;22.90;;;;;;5093864;28;20024;-65
2022/03/24 12:37:27;;;;;;;16.27;11.40;;;26.70;22.80;;;;;;5093811;28;20548;-65
2022/03/24 12:40:09;;;;;;;13.18;10.73;;;26.40;22.80;;;;;;5094834;28;20042;-65
2022/03/24 12:42:51;;;;;;;14.93;11.02;;;26.10;23.10;;;;;;5093632;28;20020;-65
2022/03/24 12:45:27;;;;;;;14.85;10.48;;;26.40;23.00;;;;;;5094680;28;20035;-65
2022/03/24 12:48:07;;;;;;;16.33;10.77;;;26.40;23.50;;;;;;5093588;28;20024;-66
2022/03/24 12:50:42;;;;;;;12.38;9.90;;;27.10;23.00;;;;;;5093846;28;20020;-63
2022/03/24 12:53:09;;;;;;;12.40;10.30;;;28.00;22.90;;;;;;5094704;28;20032;-65
2022/03/24 12:59:05;;;;;;;14.00;10.20;;;27.70;22.40;;;;;;5097323;28;20027;-64
2022/03/24 13:01:31;;;;;;;15.00;9.45;;;28.50;22.10;;;;;;5095545;28;20032;-64
2022/03/24 13:04:08;;;;;;;12.10;9.75;;;28.20;22.10;;;;;;5093300;28;20391;-64
2022/03/24 13:06:36;;;;;;;15.07;10.63;;;27.90;22.40;;;;;;5094927;28;20074;-64